Nearby METAR Reports

 

KCGS - College Park, Maryland, USA
Distance from station: S 2mi, 3km
Updated: 12/12/2018 6:22pm
Overcast
Overcast
 Wind from calm
Wind: Calm
Temperature: 43°F , 6°C
Dew Point: 23°F , -5°C
Humidity: 46%
Barometer: 30.20 inHg , 1022.7 hPa
Clouds: Overcast
Visibility: 10 miles , 16 km
Cloud details: Overcast 10000 ft
2018/12/12 23:22 KCGS 122322Z AUTO 00000KT 10SM OVC100 06/M05 A3020 RMK AO1 T00571048
KFME - Fort Meade, Maryland, USA
Distance from station: ENE 10mi, 15km
Updated: 12/12/2018 6:21pm
Overcast
Overcast
 Wind from SSE
Wind: SSE 3 mph , 6 km/h
Temperature: 37°F , 3°C
Dew Point: 30°F , -1°C
Humidity: 75%
Barometer: 30.21 inHg , 1023 hPa
Clouds: Overcast
Visibility: 10 miles , 16 km
Cloud details: Overcast 11000 ft
2018/12/12 23:21 KFME 122321Z AUTO 16003KT 10SM OVC110 03/M01 A3021 RMK AO1
KDCA - Washington/Natl, Washington D.c., USA
Distance from station: SSW 13mi, 20km
Updated: 12/12/2018 5:52pm
Overcast
Overcast
 Wind from SSW
Wind: SSW 9 mph , 15 km/h
Temperature: 45°F , 7°C
Wind Chill: 40°F , 4°C
Dew Point: 25°F , -4°C
Humidity: 46%
Barometer: 30.20 inHg , 1022.7 hPa
Clouds: Overcast
Visibility: 10 miles , 16 km
Cloud details: Mostly cloudy 15000 ft
Overcast 18000 ft
2018/12/12 22:52 KDCA 122252Z 20008KT 10SM BKN150 OVC180 07/M04 A3020 RMK AO2 SLP225 T00671039
 
KADW - Andrews Afb, Maryland, USA
Distance from station: SSE 14mi, 22km
Updated: 12/12/2018 5:56pm
Few Clouds
Few Clouds
 Wind from S
Wind: S 5 mph , 7 km/h
Temperature: 39°F , 4°C
Wind Chill: 35°F , 2°C
Dew Point: 23°F , -5°C
Humidity: 52%
Barometer: 30.17 inHg , 1021.7 hPa
Clouds: Few Clouds
Visibility: 10 miles , 16 km
Cloud details: Few Clouds 13000 ft
2018/12/12 22:56 KADW 122256Z AUTO 19004KT 10SM FEW130 04/M05 A3017 RMK AO2 SLP226 T00361046 $
KBWI - Balto/Wash Intl, Maryland, USA
Distance from station: NE 17mi, 27km
Updated: 12/12/2018 5:54pm
Overcast
Overcast
 Wind from SE
Wind: SE 5 mph , 7 km/h
Temperature: 39°F , 4°C
Wind Chill: 35°F , 2°C
Dew Point: 27°F , -3°C
Humidity: 61%
Barometer: 30.17 inHg , 1021.7 hPa
Clouds: Overcast
Visibility: 10 miles , 16 km
Cloud details: Mostly cloudy 11000 ft
Overcast 16000 ft
2018/12/12 22:54 KBWI 122254Z 14004KT 10SM BKN110 OVC160 04/M03 A3017 RMK AO2 SLP217 T00441028
KGAI - Gaithersburg, Maryland, USA
Distance from station: NW 17mi, 28km
Updated: 12/12/2018 5:56pm
Overcast
Overcast
 Wind from SSE
Wind: SSE 6 mph , 9 km/h
Temperature: 39°F , 4°C
Wind Chill: 35°F , 2°C
Dew Point: 25°F , -4°C
Humidity: 56%
Barometer: 30.17 inHg , 1021.7 hPa
Clouds: Overcast
Visibility: 10 miles , 16 km
Cloud details: Overcast 10000 ft
2018/12/12 22:56 KGAI 122256Z AUTO 15005KT 10SM OVC100 04/M04 A3017 RMK AO2 SLP248 T00441044
 
KNAK - Annapolis/Naval, Maryland, USA
Distance from station: E 23mi, 38km
Updated: 12/12/2018 5:54pm
Clear
Clear
 Wind from SSE
Wind: SSE 6 mph , 9 km/h
Temperature: 43°F , 6°C
Wind Chill: 39°F , 4°C
Dew Point: 30°F , -1°C
Humidity: 61%
Barometer: 30.19 inHg , 1022.4 hPa
Clouds: Clear
Visibility: 7 miles , 11 km
2018/12/12 22:54 KNAK 122254Z AUTO 16005KT 7SM CLR 06/M01 A3019 RMK AO2 SLP224 T00611011
KDAA - Fort Belvoir/Dav, Virginia, USA
Distance from station: SSW 24mi, 39km
Updated: 12/12/2018 5:56pm
Mostly cloudy
Mostly cloudy
 Wind from S
Wind: S 3 mph , 6 km/h
Temperature: 41°F , 5°C
Dew Point: 23°F , -5°C
Humidity: 49%
Barometer: 30.20 inHg , 1022.7 hPa
Clouds: Mostly cloudy
Visibility: 10 miles , 16 km
Cloud details: Partly cloudy 12000 ft
Mostly cloudy 14000 ft
2018/12/12 22:56 KDAA 122256Z AUTO 18003KT 10SM SCT120 BKN140 05/M05 A3020 RMK AO2 SLP231 T00491049 TSNO $
KDMH - Baltimore/Dwntwn, Maryland, USA
Distance from station: NE 25mi, 40km
Updated: 12/12/2018 5:54pm

 
Temperature: 43°F , 6°C
Dew Point: 25°F , -4°C
Humidity: 49%
Barometer: 30.18 inHg , 1022 hPa
2018/12/12 22:54 KDMH 122254Z AUTO 06/M04 A3018 RMK AO1 SLP220 T00561039
 
KIAD - Wash Dc/Dulles, Virginia, USA
Distance from station: W 29mi, 47km
Updated: 12/12/2018 5:52pm
Overcast
Overcast
 Wind from SSE
Wind: SSE 6 mph , 9 km/h
Temperature: 41°F , 5°C
Wind Chill: 37°F , 3°C
Dew Point: 23°F , -5°C
Humidity: 49%
Barometer: 30.17 inHg , 1021.7 hPa
Clouds: Overcast
Visibility: 10 miles , 16 km
Cloud details: Mostly cloudy 9000 ft
Overcast 20000 ft
2018/12/12 22:52 KIAD 122252Z 16005KT 10SM BKN090 OVC200 05/M05 A3017 RMK AO2 SLP219 T00501050
KW29 - Stevensville, Maryland, USA
Distance from station: E 31mi, 51km
Updated: 12/12/2018 6:20pm
Partly cloudy
Partly cloudy
 Wind from SSE
Wind: SSE 5 mph , 7 km/h
Temperature: 39°F , 4°C
Wind Chill: 35°F , 2°C
Dew Point: 28°F , -2°C
Humidity: 65%
Barometer: 30.20 inHg , 1022.7 hPa
Clouds: Partly cloudy
Visibility: 7 miles , 11 km
Cloud details: Partly cloudy 12000 ft
2018/12/12 23:20 KW29 122320Z AUTO 15004KT 7SM SCT120 04/M02 A3020 RMK AO2
KMTN - Baltimore/Martin, Maryland, USA
Distance from station: NE 34mi, 55km
Updated: 12/12/2018 5:50pm
Overcast
Overcast
 Wind from ESE
Wind: ESE 3 mph , 6 km/h
Temperature: 39°F , 4°C
Dew Point: 30°F , -1°C
Humidity: 70%
Barometer: 30.20 inHg , 1022.7 hPa
Clouds: Overcast
Visibility: 10 miles , 16 km
Cloud details: Partly cloudy 13000 ft
Mostly cloudy 16000 ft
Overcast 25000 ft
2018/12/12 22:50 KMTN 122250Z 12003KT 10SM SCT130 BKN160 OVC250 04/M01 A3020
 
KJYO - Leesburg/Godfrey, Virginia, USA
Distance from station: W 35mi, 56km
Updated: 12/12/2018 6:35pm
Overcast
Overcast
 Wind from SSE
Wind: SSE 6 mph , 9 km/h
Temperature: 43°F , 6°C
Wind Chill: 39°F , 4°C
Dew Point: 28°F , -2°C
Humidity: 57%
Barometer: 30.15 inHg , 1021 hPa
Clouds: Overcast
Visibility: 10 miles , 16 km
Cloud details: Partly cloudy 8000 ft
Overcast 10000 ft
2018/12/12 23:35 KJYO 122335Z AUTO 16005KT 10SM SCT080 OVC100 06/M02 A3015 RMK AO2
KFDK - Frederick, Maryland, USA
Distance from station: NW 37mi, 60km
Updated: 12/12/2018 5:47pm
Clear
Clear
 Wind from calm
Wind: Calm
Temperature: 36°F , 2°C
Dew Point: 28°F , -2°C
Humidity: 75%
Barometer: 30.19 inHg , 1022.4 hPa
Clouds: Clear
Visibility: 7 miles , 11 km
2018/12/12 22:47 KFDK 122247Z 00000KT 7SM SKC 02/M02 A3019
KHEF - Manassas Muni, Virginia, USA
Distance from station: WSW 38mi, 61km
Updated: 12/12/2018 5:56pm
Clear
Clear
 Wind from SSE
Wind: SSE 5 mph , 7 km/h
Temperature: 37°F , 3°C
Wind Chill: 33°F , 1°C
Dew Point: 25°F , -4°C
Humidity: 60%
Barometer: 30.18 inHg , 1022 hPa
Clouds: Clear
Visibility: 10 miles , 16 km
2018/12/12 22:56 KHEF 122256Z 15004KT 10SM CLR 03/M04 A3018 RMK AO2 SLP234 T00281044 PNO $
 
KNYG - Quantico Mcaf, Virginia, USA
Distance from station: SSW 40mi, 65km
Updated: 12/12/2018 5:56pm
Few Clouds
Few Clouds
 Wind from calm
Wind: Calm
Temperature: 41°F , 5°C
Dew Point: 30°F , -1°C
Humidity: 66%
Barometer: 30.21 inHg , 1023 hPa
Clouds: Few Clouds
Visibility: 10 miles , 16 km
Cloud details: Few Clouds 10000 ft
2018/12/12 22:56 KNYG 122256Z AUTO 00000KT 10SM FEW100 05/M01 A3021 RMK AO2 SLP232 T00501006
KDMW - Carroll Cnty, Maryland, USA
Distance from station: N 41mi, 66km
Updated: 12/12/2018 6:20pm
Clear
Clear
 Wind from calm
Wind: Calm
Temperature: 36°F , 2°C
Dew Point: 21°F , -6°C
Humidity: 56%
Barometer: 30.15 inHg , 1021 hPa
Clouds: Clear
Visibility: 10 miles , 16 km
2018/12/12 23:20 KDMW 122320Z AUTO 00000KT 10SM CLR 02/M06 A3015 RMK AO2
KESN - Easton/Newnam, Maryland, USA
Distance from station: ESE 48mi, 77km
Updated: 12/12/2018 5:50pm
Clear
Clear
 Wind from SE
Wind: SE 3 mph , 6 km/h
Temperature: 41°F , 5°C
Dew Point: 27°F , -3°C
Humidity: 57%
Barometer: 30.23 inHg , 1023.7 hPa
Clouds: Clear
Visibility: 10 miles , 16 km
2018/12/12 22:50 KESN 122250Z 13003KT 10SM SKC 05/M03 A3023